sensor_id;sensor_type;location;lat;lon;timestamp;pressure;altitude;pressure_sealevel;temperature;humidity
31771;BME280;18343;50.152;8.182;2023-02-08T00:00:04;99509.16;;;-0.77;59.66
31771;BME280;18343;50.152;8.182;2023-02-08T00:02:48;99516.31;;;-0.79;59.34
31771;BME280;18343;50.152;8.182;2023-02-08T00:05:37;99505.69;;;-0.77;59.27
31771;BME280;18343;50.152;8.182;2023-02-08T00:08:22;99496.19;;;-0.81;59.53
31771;BME280;18343;50.152;8.182;2023-02-08T00:11:08;99505.88;;;-0.82;59.75
31771;BME280;18343;50.152;8.182;2023-02-08T00:13:52;99513.91;;;-0.83;59.32
31771;BME280;18343;50.152;8.182;2023-02-08T00:16:37;99501.47;;;-0.81;60.37
31771;BME280;18343;50.152;8.182;2023-02-08T00:19:21;99507.69;;;-0.82;59.76
31771;BME280;18343;50.152;8.182;2023-02-08T00:22:07;99499.00;;;-0.84;60.19
31771;BME280;18343;50.152;8.182;2023-02-08T00:24:52;99505.06;;;-0.82;59.79
31771;BME280;18343;50.152;8.182;2023-02-08T00:27:37;99499.13;;;-0.87;60.12
31771;BME280;18343;50.152;8.182;2023-02-08T00:30:22;99502.75;;;-0.90;59.87
31771;BME280;18343;50.152;8.182;2023-02-08T00:33:08;99496.63;;;-0.90;60.14
31771;BME280;18343;50.152;8.182;2023-02-08T00:35:58;99501.13;;;-0.92;59.92
31771;BME280;18343;50.152;8.182;2023-02-08T00:38:44;99495.91;;;-0.94;60.15
31771;BME280;18343;50.152;8.182;2023-02-08T00:41:28;99497.75;;;-0.96;60.16
31771;BME280;18343;50.152;8.182;2023-02-08T00:44:13;99493.47;;;-0.98;60.17
31771;BME280;18343;50.152;8.182;2023-02-08T00:46:58;99498.88;;;-1.02;59.91
31771;BME280;18343;50.152;8.182;2023-02-08T00:49:42;99498.31;;;-1.08;59.94
31771;BME280;18343;50.152;8.182;2023-02-08T00:52:27;99502.88;;;-1.12;59.99
31771;BME280;18343;50.152;8.182;2023-02-08T00:55:13;99504.59;;;-1.11;60.41
31771;BME280;18343;50.152;8.182;2023-02-08T00:57:57;99500.25;;;-1.12;60.11
31771;BME280;18343;50.152;8.182;2023-02-08T01:00:43;99498.69;;;-1.16;60.11
31771;BME280;18343;50.152;8.182;2023-02-08T01:03:28;99492.53;;;-1.16;60.39
31771;BME280;18343;50.152;8.182;2023-02-08T01:06:15;99491.53;;;-1.14;60.61
31771;BME280;18343;50.152;8.182;2023-02-08T01:09:01;99492.47;;;-1.15;60.44
31771;BME280;18343;50.152;8.182;2023-02-08T01:11:46;99493.59;;;-1.20;60.41
31771;BME280;18343;50.152;8.182;2023-02-08T01:14:31;99497.44;;;-1.27;60.21
31771;BME280;18343;50.152;8.182;2023-02-08T01:17:16;99487.94;;;-1.31;60.41
31771;BME280;18343;50.152;8.182;2023-02-08T01:20:00;99493.41;;;-1.36;60.43
31771;BME280;18343;50.152;8.182;2023-02-08T01:22:44;99484.72;;;-1.38;60.56
31771;BME280;18343;50.152;8.182;2023-02-08T01:25:29;99485.78;;;-1.42;61.03
31771;BME280;18343;50.152;8.182;2023-02-08T01:28:16;99484.00;;;-1.42;60.91
31771;BME280;18343;50.152;8.182;2023-02-08T01:31:05;99484.06;;;-1.43;60.96
31771;BME280;18343;50.152;8.182;2023-02-08T01:33:50;99482.50;;;-1.47;61.09
31771;BME280;18343;50.152;8.182;2023-02-08T01:36:35;99479.84;;;-1.47;61.21
31771;BME280;18343;50.152;8.182;2023-02-08T01:39:20;99472.84;;;-1.48;61.20
31771;BME280;18343;50.152;8.182;2023-02-08T01:42:05;99473.25;;;-1.57;62.55
31771;BME280;18343;50.152;8.182;2023-02-08T01:45:20;99471.28;;;-1.52;62.19
31771;BME280;18343;50.152;8.182;2023-02-08T01:48:12;99467.91;;;-1.56;62.62
31771;BME280;18343;50.152;8.182;2023-02-08T01:51:03;99469.81;;;-1.59;62.96
31771;BME280;18343;50.152;8.182;2023-02-08T01:53:52;99468.78;;;-1.55;63.10
31771;BME280;18343;50.152;8.182;2023-02-08T01:56:42;99465.88;;;-1.49;62.83
31771;BME280;18343;50.152;8.182;2023-02-08T01:59:33;99472.72;;;-1.45;63.08
31771;BME280;18343;50.152;8.182;2023-02-08T02:02:22;99472.59;;;-1.42;62.89
31771;BME280;18343;50.152;8.182;2023-02-08T02:05:09;99469.66;;;-1.36;63.11
31771;BME280;18343;50.152;8.182;2023-02-08T02:07:55;99459.97;;;-1.36;63.00
31771;BME280;18343;50.152;8.182;2023-02-08T02:10:42;99459.88;;;-1.34;62.85
31771;BME280;18343;50.152;8.182;2023-02-08T02:13:27;99447.47;;;-1.32;63.30
31771;BME280;18343;50.152;8.182;2023-02-08T02:16:12;99449.19;;;-1.31;63.06
31771;BME280;18343;50.152;8.182;2023-02-08T02:18:58;99449.06;;;-1.28;63.08
31771;BME280;18343;50.152;8.182;2023-02-08T02:21:56;99451.56;;;-1.25;63.01
31771;BME280;18343;50.152;8.182;2023-02-08T02:32:10;99459.81;;;-1.32;62.62
31771;BME280;18343;50.152;8.182;2023-02-08T02:35:05;99466.25;;;-1.38;62.51
31771;BME280;18343;50.152;8.182;2023-02-08T02:37:59;99463.44;;;-1.35;63.33
31771;BME280;18343;50.152;8.182;2023-02-08T02:40:57;99469.75;;;-1.38;64.34
31771;BME280;18343;50.152;8.182;2023-02-08T02:43:47;99458.09;;;-1.33;63.28
31771;BME280;18343;50.152;8.182;2023-02-08T02:46:40;99457.41;;;-1.37;63.35
31771;BME280;18343;50.152;8.182;2023-02-08T02:49:33;99457.31;;;-1.36;63.47
31771;BME280;18343;50.152;8.182;2023-02-08T02:52:24;99453.69;;;-1.33;63.51
31771;BME280;18343;50.152;8.182;2023-02-08T02:55:16;99463.53;;;-1.37;62.77
31771;BME280;18343;50.152;8.182;2023-02-08T02:58:04;99457.69;;;-1.43;62.91
31771;BME280;18343;50.152;8.182;2023-02-08T03:00:53;99455.19;;;-1.46;62.53
31771;BME280;18343;50.152;8.182;2023-02-08T03:03:39;99458.16;;;-1.54;62.59
31771;BME280;18343;50.152;8.182;2023-02-08T03:06:37;99454.78;;;-1.57;62.55
31771;BME280;18343;50.152;8.182;2023-02-08T03:09:51;99457.56;;;-1.60;62.79
31771;BME280;18343;50.152;8.182;2023-02-08T03:12:54;99450.56;;;-1.61;63.23
31771;BME280;18343;50.152;8.182;2023-02-08T03:15:54;99453.19;;;-1.61;63.18
31771;BME280;18343;50.152;8.182;2023-02-08T03:18:54;99450.56;;;-1.61;63.49
31771;BME280;18343;50.152;8.182;2023-02-08T03:21:51;99457.63;;;-1.62;63.26
31771;BME280;18343;50.152;8.182;2023-02-08T03:24:45;99450.72;;;-1.64;63.42
31771;BME280;18343;50.152;8.182;2023-02-08T03:27:33;99452.28;;;-1.60;63.48
31771;BME280;18343;50.152;8.182;2023-02-08T03:30:27;99448.84;;;-1.62;63.30
31771;BME280;18343;50.152;8.182;2023-02-08T03:33:17;99452.56;;;-1.66;63.02
31771;BME280;18343;50.152;8.182;2023-02-08T03:36:09;99452.78;;;-1.71;63.52
31771;BME280;18343;50.152;8.182;2023-02-08T03:39:03;99453.63;;;-1.71;63.65
31771;BME280;18343;50.152;8.182;2023-02-08T03:41:54;99459.81;;;-1.72;63.63
31771;BME280;18343;50.152;8.182;2023-02-08T03:44:45;99457.31;;;-1.75;63.38
31771;BME280;18343;50.152;8.182;2023-02-08T03:47:36;99462.72;;;-1.78;63.38
31771;BME280;18343;50.152;8.182;2023-02-08T03:50:22;99460.22;;;-1.81;63.61
31771;BME280;18343;50.152;8.182;2023-02-08T03:53:08;99462.00;;;-1.81;63.54
31771;BME280;18343;50.152;8.182;2023-02-08T03:55:59;99468.97;;;-1.80;63.87
31771;BME280;18343;50.152;8.182;2023-02-08T03:58:51;99463.78;;;-1.82;64.00
31771;BME280;18343;50.152;8.182;2023-02-08T04:01:43;99461.88;;;-1.78;64.25
31771;BME280;18343;50.152;8.182;2023-02-08T04:04:34;99457.50;;;-1.79;64.36
31771;BME280;18343;50.152;8.182;2023-02-08T04:07:20;99453.09;;;-1.79;64.41
31771;BME280;18343;50.152;8.182;2023-02-08T04:10:05;99451.19;;;-1.75;64.64
31771;BME280;18343;50.152;8.182;2023-02-08T04:12:52;99450.13;;;-1.71;64.78
31771;BME280;18343;50.152;8.182;2023-02-08T04:15:36;99445.59;;;-1.67;65.00
31771;BME280;18343;50.152;8.182;2023-02-08T04:18:21;99451.41;;;-1.61;65.40
31771;BME280;18343;50.152;8.182;2023-02-08T04:21:06;99449.66;;;-1.60;64.71
31771;BME280;18343;50.152;8.182;2023-02-08T04:23:50;99456.75;;;-1.62;64.82
31771;BME280;18343;50.152;8.182;2023-02-08T04:26:35;99457.25;;;-1.73;63.96
31771;BME280;18343;50.152;8.182;2023-02-08T04:29:21;99452.44;;;-1.84;63.82
31771;BME280;18343;50.152;8.182;2023-02-08T04:32:06;99449.06;;;-1.87;64.25
31771;BME280;18343;50.152;8.182;2023-02-08T04:34:51;99449.28;;;-1.92;64.00
31771;BME280;18343;50.152;8.182;2023-02-08T04:37:35;99448.63;;;-1.97;64.50
31771;BME280;18343;50.152;8.182;2023-02-08T04:40:20;99448.63;;;-1.97;64.88
31771;BME280;18343;50.152;8.182;2023-02-08T04:43:04;99443.22;;;-1.94;64.95
31771;BME280;18343;50.152;8.182;2023-02-08T04:45:50;99446.72;;;-1.93;65.29
31771;BME280;18343;50.152;8.182;2023-02-08T04:48:35;99443.06;;;-1.91;65.17
31771;BME280;18343;50.152;8.182;2023-02-08T04:51:19;99436.88;;;-1.90;65.09
31771;BME280;18343;50.152;8.182;2023-02-08T04:54:04;99435.16;;;-1.91;65.00
31771;BME280;18343;50.152;8.182;2023-02-08T04:56:49;99426.69;;;-1.97;64.51
31771;BME280;18343;50.152;8.182;2023-02-08T04:59:34;99423.31;;;-2.01;65.00
31771;BME280;18343;50.152;8.182;2023-02-08T05:02:20;99425.81;;;-1.98;65.33
31771;BME280;18343;50.152;8.182;2023-02-08T05:05:05;99423.13;;;-1.96;65.86
31771;BME280;18343;50.152;8.182;2023-02-08T05:07:50;99425.63;;;-1.93;65.48
31771;BME280;18343;50.152;8.182;2023-02-08T05:10:34;99429.25;;;-1.96;65.08
31771;BME280;18343;50.152;8.182;2023-02-08T05:13:18;99421.41;;;-1.97;65.48
31771;BME280;18343;50.152;8.182;2023-02-08T05:16:03;99428.53;;;-1.99;65.08
31771;BME280;18343;50.152;8.182;2023-02-08T05:18:50;99417.31;;;-2.05;64.86
31771;BME280;18343;50.152;8.182;2023-02-08T05:21:34;99415.72;;;-2.09;65.17
31771;BME280;18343;50.152;8.182;2023-02-08T05:24:19;99420.19;;;-2.11;65.42
31771;BME280;18343;50.152;8.182;2023-02-08T05:27:03;99418.41;;;-2.10;65.47
31771;BME280;18343;50.152;8.182;2023-02-08T05:29:48;99413.28;;;-2.13;65.67
31771;BME280;18343;50.152;8.182;2023-02-08T05:32:32;99414.06;;;-2.11;65.66
31771;BME280;18343;50.152;8.182;2023-02-08T05:35:19;99415.78;;;-2.10;65.83
31771;BME280;18343;50.152;8.182;2023-02-08T05:38:04;99421.91;;;-2.10;65.88
31771;BME280;18343;50.152;8.182;2023-02-08T05:40:49;99431.72;;;-2.13;64.96
31771;BME280;18343;50.152;8.182;2023-02-08T05:43:34;99426.00;;;-2.23;65.12
31771;BME280;18343;50.152;8.182;2023-02-08T05:46:18;99424.41;;;-2.27;65.22
31771;BME280;18343;50.152;8.182;2023-02-08T05:49:03;99422.94;;;-2.34;64.69
31771;BME280;18343;50.152;8.182;2023-02-08T05:51:49;99431.91;;;-2.38;65.52
31771;BME280;18343;50.152;8.182;2023-02-08T05:54:33;99437.09;;;-2.36;66.09
31771;BME280;18343;50.152;8.182;2023-02-08T05:57:18;99445.88;;;-2.36;65.92
31771;BME280;18343;50.152;8.182;2023-02-08T06:00:04;99441.56;;;-2.39;66.00
31771;BME280;18343;50.152;8.182;2023-02-08T06:02:49;99441.56;;;-2.39;65.52
31771;BME280;18343;50.152;8.182;2023-02-08T06:05:35;99447.78;;;-2.40;66.50
31771;BME280;18343;50.152;8.182;2023-02-08T06:08:21;99447.72;;;-2.38;66.50
31771;BME280;18343;50.152;8.182;2023-02-08T06:11:06;99453.88;;;-2.39;65.76
31771;BME280;18343;50.152;8.182;2023-02-08T06:13:50;99450.66;;;-2.46;65.87
31771;BME280;18343;50.152;8.182;2023-02-08T06:16:35;99448.22;;;-2.50;66.06
31771;BME280;18343;50.152;8.182;2023-02-08T06:19:19;99449.03;;;-2.48;66.48
31771;BME280;18343;50.152;8.182;2023-02-08T06:22:04;99456.97;;;-2.50;65.98
31771;BME280;18343;50.152;8.182;2023-02-08T06:24:50;99458.94;;;-2.55;66.29
31771;BME280;18343;50.152;8.182;2023-02-08T06:27:34;99459.00;;;-2.56;66.80
31771;BME280;18343;50.152;8.182;2023-02-08T06:30:19;99461.56;;;-2.55;67.09
31771;BME280;18343;50.152;8.182;2023-02-08T06:33:04;99466.84;;;-2.55;66.74
31771;BME280;18343;50.152;8.182;2023-02-08T06:35:51;99461.50;;;-2.53;67.39
31771;BME280;18343;50.152;8.182;2023-02-08T06:38:35;99460.53;;;-2.51;67.04
31771;BME280;18343;50.152;8.182;2023-02-08T06:41:21;99464.88;;;-2.50;67.20
31771;BME280;18343;50.152;8.182;2023-02-08T06:44:06;99467.56;;;-2.51;67.31
31771;BME280;18343;50.152;8.182;2023-02-08T06:46:51;99466.84;;;-2.55;66.74
31771;BME280;18343;50.152;8.182;2023-02-08T06:49:35;99463.34;;;-2.55;67.21
31771;BME280;18343;50.152;8.182;2023-02-08T06:52:20;99467.63;;;-2.53;67.16
31771;BME280;18343;50.152;8.182;2023-02-08T06:55:06;99463.28;;;-2.54;67.11
31771;BME280;18343;50.152;8.182;2023-02-08T06:57:54;99465.13;;;-2.56;66.96
31771;BME280;18343;50.152;8.182;2023-02-08T07:00:39;99458.13;;;-2.57;67.30
31771;BME280;18343;50.152;8.182;2023-02-08T07:03:23;99463.28;;;-2.54;67.80
31771;BME280;18343;50.152;8.182;2023-02-08T07:06:12;99461.47;;;-2.52;67.77
31771;BME280;18343;50.152;8.182;2023-02-08T07:08:57;99460.47;;;-2.49;67.90
31771;BME280;18343;50.152;8.182;2023-02-08T07:11:41;99457.78;;;-2.48;68.00
31771;BME280;18343;50.152;8.182;2023-02-08T07:14:28;99455.91;;;-2.46;68.02
31771;BME280;18343;50.152;8.182;2023-02-08T07:17:13;99452.56;;;-2.49;67.39
31771;BME280;18343;50.152;8.182;2023-02-08T07:19:57;99456.06;;;-2.49;67.37
31771;BME280;18343;50.152;8.182;2023-02-08T07:22:42;99455.28;;;-2.51;67.99
31771;BME280;18343;50.152;8.182;2023-02-08T07:25:26;99456.97;;;-2.50;68.42
31771;BME280;18343;50.152;8.182;2023-02-08T07:28:11;99456.06;;;-2.49;68.30
31771;BME280;18343;50.152;8.182;2023-02-08T07:30:57;99462.19;;;-2.48;67.81
31771;BME280;18343;50.152;8.182;2023-02-08T07:33:42;99458.69;;;-2.49;68.19
31771;BME280;18343;50.152;8.182;2023-02-08T07:36:27;99463.06;;;-2.48;68.30
31771;BME280;18343;50.152;8.182;2023-02-08T07:39:11;99459.50;;;-2.47;68.63
31771;BME280;18343;50.152;8.182;2023-02-08T07:41:56;99447.09;;;-2.45;68.52
31771;BME280;18343;50.152;8.182;2023-02-08T07:44:40;99448.75;;;-2.42;68.73
31771;BME280;18343;50.152;8.182;2023-02-08T07:47:26;99457.56;;;-2.43;68.75
31771;BME280;18343;50.152;8.182;2023-02-08T07:50:10;99451.38;;;-2.42;68.86
31771;BME280;18343;50.152;8.182;2023-02-08T07:52:55;99450.41;;;-2.40;69.06
31771;BME280;18343;50.152;8.182;2023-02-08T07:55:39;99443.97;;;-2.32;69.76
31771;BME280;18343;50.152;8.182;2023-02-08T07:58:24;99442.00;;;-2.27;70.00
31771;BME280;18343;50.152;8.182;2023-02-08T08:01:09;99452.13;;;-2.18;69.86
31771;BME280;18343;50.152;8.182;2023-02-08T08:03:55;99453.72;;;-2.14;69.67
31771;BME280;18343;50.152;8.182;2023-02-08T08:06:40;99448.28;;;-2.10;69.93
31771;BME280;18343;50.152;8.182;2023-02-08T08:09:24;99449.81;;;-2.04;70.56
31771;BME280;18343;50.152;8.182;2023-02-08T08:12:09;99458.38;;;-1.99;69.97
31771;BME280;18343;50.152;8.182;2023-02-08T08:14:54;99458.38;;;-1.99;70.37
31771;BME280;18343;50.152;8.182;2023-02-08T08:17:38;99454.75;;;-1.96;70.38
31771;BME280;18343;50.152;8.182;2023-02-08T08:20:25;99447.47;;;-1.91;70.81
31771;BME280;18343;50.152;8.182;2023-02-08T08:23:12;99452.56;;;-1.87;70.53
31771;BME280;18343;50.152;8.182;2023-02-08T08:25:57;99441.09;;;-1.86;70.42
31771;BME280;18343;50.152;8.182;2023-02-08T08:28:43;99446.09;;;-1.80;71.33
31771;BME280;18343;50.152;8.182;2023-02-08T08:31:27;99445.06;;;-1.76;71.15
31771;BME280;18343;50.152;8.182;2023-02-08T08:34:12;99445.78;;;-1.72;71.92
31771;BME280;18343;50.152;8.182;2023-02-08T08:37:00;99444.59;;;-1.65;71.93
31771;BME280;18343;50.152;8.182;2023-02-08T08:39:45;99450.44;;;-1.58;72.35
31771;BME280;18343;50.152;8.182;2023-02-08T08:42:29;99443.97;;;-1.51;72.55
31771;BME280;18343;50.152;8.182;2023-02-08T08:45:14;99434.00;;;-1.45;73.09
31771;BME280;18343;50.152;8.182;2023-02-08T08:47:59;99444.28;;;-1.39;73.23
31771;BME280;18343;50.152;8.182;2023-02-08T08:50:43;99441.00;;;-1.25;73.46
31771;BME280;18343;50.152;8.182;2023-02-08T08:53:29;99429.91;;;-1.13;74.45
31771;BME280;18343;50.152;8.182;2023-02-08T08:56:14;99434.81;;;-0.86;74.69
31771;BME280;18343;50.152;8.182;2023-02-08T08:58:58;99437.06;;;-0.60;74.64
31771;BME280;18343;50.152;8.182;2023-02-08T09:01:43;99434.28;;;-0.40;74.72
31771;BME280;18343;50.152;8.182;2023-02-08T09:04:27;99440.94;;;-0.14;74.32
31771;BME280;18343;50.152;8.182;2023-02-08T09:07:12;99435.47;;;0.07;73.72
31771;BME280;18343;50.152;8.182;2023-02-08T09:09:58;99434.00;;;0.18;73.75
31771;BME280;18343;50.152;8.182;2023-02-08T09:12:42;99427.91;;;0.33;73.52
31771;BME280;18343;50.152;8.182;2023-02-08T09:15:27;99429.31;;;0.41;73.16
31771;BME280;18343;50.152;8.182;2023-02-08T09:18:11;99427.19;;;0.47;73.00
31771;BME280;18343;50.152;8.182;2023-02-08T09:20:56;99431.19;;;0.39;71.27
31771;BME280;18343;50.152;8.182;2023-02-08T09:23:40;99425.19;;;0.52;72.72
31771;BME280;18343;50.152;8.182;2023-02-08T09:26:27;99422.34;;;0.55;72.13
31771;BME280;18343;50.152;8.182;2023-02-08T09:29:12;99420.59;;;0.72;72.12
31771;BME280;18343;50.152;8.182;2023-02-08T09:31:57;99409.75;;;0.76;71.82
31771;BME280;18343;50.152;8.182;2023-02-08T09:34:41;99413.59;;;0.86;72.36
31771;BME280;18343;50.152;8.182;2023-02-08T09:37:26;99409.78;;;0.92;72.15
31771;BME280;18343;50.152;8.182;2023-02-08T09:40:21;99415.50;;;1.00;71.02
31771;BME280;18343;50.152;8.182;2023-02-08T09:43:13;99418.47;;;1.10;71.50
31771;BME280;18343;50.152;8.182;2023-02-08T09:46:03;99412.75;;;1.17;71.10
31771;BME280;18343;50.152;8.182;2023-02-08T09:48:51;99410.88;;;1.19;70.78
31771;BME280;18343;50.152;8.182;2023-02-08T09:51:42;99412.34;;;1.25;70.62
31771;BME280;18343;50.152;8.182;2023-02-08T09:54:33;99413.00;;;1.44;70.91
31771;BME280;18343;50.152;8.182;2023-02-08T09:57:24;99416.84;;;1.54;70.93
31771;BME280;18343;50.152;8.182;2023-02-08T10:00:17;99425.97;;;1.64;71.03
31771;BME280;18343;50.152;8.182;2023-02-08T10:03:04;99424.94;;;1.67;70.03
31771;BME280;18343;50.152;8.182;2023-02-08T10:05:52;99419.03;;;1.78;70.35
31771;BME280;18343;50.152;8.182;2023-02-08T10:08:37;99420.81;;;1.77;69.85
31771;BME280;18343;50.152;8.182;2023-02-08T10:11:41;99415.59;;;1.91;68.03
31771;BME280;18343;50.152;8.182;2023-02-08T10:14:46;99421.09;;;2.02;67.92
31771;BME280;18343;50.152;8.182;2023-02-08T10:18:07;99423.72;;;2.18;68.41
31771;BME280;18343;50.152;8.182;2023-02-08T10:21:12;99424.56;;;2.33;69.88
31771;BME280;18343;50.152;8.182;2023-02-08T10:24:42;99425.44;;;2.48;69.63
31771;BME280;18343;50.152;8.182;2023-02-08T10:27:42;99421.28;;;2.58;68.00
31771;BME280;18343;50.152;8.182;2023-02-08T10:30:37;99419.19;;;2.63;68.11
31771;BME280;18343;50.152;8.182;2023-02-08T10:33:34;99416.63;;;2.76;68.37
31771;BME280;18343;50.152;8.182;2023-02-08T10:36:26;99403.84;;;2.68;66.27
31771;BME280;18343;50.152;8.182;2023-02-08T10:39:17;99408.09;;;2.85;66.65
31771;BME280;18343;50.152;8.182;2023-02-08T10:42:02;99410.44;;;3.03;66.80
31771;BME280;18343;50.152;8.182;2023-02-08T10:44:59;99399.50;;;3.22;63.70
31771;BME280;18343;50.152;8.182;2023-02-08T10:47:49;99396.94;;;3.21;62.02
31771;BME280;18343;50.152;8.182;2023-02-08T10:50:39;99394.13;;;3.36;64.20
31771;BME280;18343;50.152;8.182;2023-02-08T10:53:24;99395.53;;;3.42;64.37
31771;BME280;18343;50.152;8.182;2023-02-08T10:56:34;99391.56;;;3.62;63.14
31771;BME280;18343;50.152;8.182;2023-02-08T10:59:25;99388.59;;;3.54;60.67
31771;BME280;18343;50.152;8.182;2023-02-08T11:02:21;99380.31;;;3.71;60.75
31771;BME280;18343;50.152;8.182;2023-02-08T11:05:09;99390.13;;;3.83;62.57
31771;BME280;18343;50.152;8.182;2023-02-08T11:08:07;99382.94;;;3.98;61.64
31771;BME280;18343;50.152;8.182;2023-02-08T11:11:02;99374.13;;;4.10;61.11
31771;BME280;18343;50.152;8.182;2023-02-08T11:13:48;99375.06;;;3.96;57.57
31771;BME280;18343;50.152;8.182;2023-02-08T11:16:33;99379.22;;;4.00;57.96
31771;BME280;18343;50.152;8.182;2023-02-08T11:19:27;99376.16;;;4.19;57.89
31771;BME280;18343;50.152;8.182;2023-02-08T11:22:16;99369.56;;;4.37;59.52
31771;BME280;18343;50.152;8.182;2023-02-08T11:25:05;99371.25;;;4.51;58.83
31771;BME280;18343;50.152;8.182;2023-02-08T11:27:50;99367.84;;;4.62;58.99
31771;BME280;18343;50.152;8.182;2023-02-08T11:30:35;99363.56;;;4.72;58.28
31771;BME280;18343;50.152;8.182;2023-02-08T11:33:20;99358.53;;;4.80;58.24
31771;BME280;18343;50.152;8.182;2023-02-08T11:36:07;99354.03;;;4.93;57.94
31771;BME280;18343;50.152;8.182;2023-02-08T11:38:52;99351.88;;;4.98;57.49
31771;BME280;18343;50.152;8.182;2023-02-08T11:41:42;99342.25;;;5.08;56.74
31771;BME280;18343;50.152;8.182;2023-02-08T11:44:30;99346.94;;;5.18;57.16
31771;BME280;18343;50.152;8.182;2023-02-08T11:47:21;99348.28;;;5.23;56.61
31771;BME280;18343;50.152;8.182;2023-02-08T11:50:20;99343.47;;;5.28;55.89
31771;BME280;18343;50.152;8.182;2023-02-08T11:53:19;99344.22;;;5.30;55.00
31771;BME280;18343;50.152;8.182;2023-02-08T11:56:15;99330.81;;;5.43;55.40
31771;BME280;18343;50.152;8.182;2023-02-08T11:59:14;99331.81;;;5.53;54.80
31771;BME280;18343;50.152;8.182;2023-02-08T12:02:25;99327.28;;;5.66;54.30
31771;BME280;18343;50.152;8.182;2023-02-08T12:05:13;99326.78;;;5.37;51.96
31771;BME280;18343;50.152;8.182;2023-02-08T12:08:06;99337.91;;;5.31;51.02
31771;BME280;18343;50.152;8.182;2023-02-08T12:11:11;99329.28;;;5.52;51.43
31771;BME280;18343;50.152;8.182;2023-02-08T12:14:30;99330.06;;;5.65;52.43
31771;BME280;18343;50.152;8.182;2023-02-08T12:18:03;99317.75;;;5.86;52.23
31771;BME280;18343;50.152;8.182;2023-02-08T12:20:54;99310.59;;;5.87;51.18
31771;BME280;18343;50.152;8.182;2023-02-08T12:23:52;99305.56;;;5.95;50.61
31771;BME280;18343;50.152;8.182;2023-02-08T12:26:55;99311.75;;;5.95;50.74
31771;BME280;18343;50.152;8.182;2023-02-08T12:29:49;99312.84;;;5.93;49.54
31771;BME280;18343;50.152;8.182;2023-02-08T12:33:14;99302.16;;;5.93;48.17
31771;BME280;18343;50.152;8.182;2023-02-08T12:36:25;99301.13;;;5.83;47.92
31771;BME280;18343;50.152;8.182;2023-02-08T12:39:31;99298.16;;;5.98;49.05
31771;BME280;18343;50.152;8.182;2023-02-08T12:42:30;99297.09;;;6.12;48.61
31771;BME280;18343;50.152;8.182;2023-02-08T12:45:46;99285.81;;;6.20;48.70
31771;BME280;18343;50.152;8.182;2023-02-08T12:49:09;99286.88;;;6.06;47.43
31771;BME280;18343;50.152;8.182;2023-02-08T12:52:14;99283.00;;;6.10;47.44
31771;BME280;18343;50.152;8.182;2023-02-08T12:55:05;99284.47;;;6.14;47.37
31771;BME280;18343;50.152;8.182;2023-02-08T12:57:58;99280.31;;;6.10;47.03
31771;BME280;18343;50.152;8.182;2023-02-08T13:00:47;99279.72;;;6.06;47.18
31771;BME280;18343;50.152;8.182;2023-02-08T13:03:40;99279.84;;;6.16;47.24
31771;BME280;18343;50.152;8.182;2023-02-08T13:06:37;99273.31;;;6.20;46.44
31771;BME280;18343;50.152;8.182;2023-02-08T13:09:39;99271.25;;;6.24;46.79
31771;BME280;18343;50.152;8.182;2023-02-08T13:12:28;99272.94;;;6.14;45.88
31771;BME280;18343;50.152;8.182;2023-02-08T13:15:19;99267.22;;;6.07;46.01
31771;BME280;18343;50.152;8.182;2023-02-08T13:18:14;99264.78;;;6.04;46.01
31771;BME280;18343;50.152;8.182;2023-02-08T13:21:04;99260.56;;;6.01;45.70
31771;BME280;18343;50.152;8.182;2023-02-08T13:23:50;99248.16;;;6.00;45.67
31771;BME280;18343;50.152;8.182;2023-02-08T13:26:37;99237.59;;;5.99;45.44
31771;BME280;18343;50.152;8.182;2023-02-08T13:29:24;99248.50;;;6.07;45.48
31771;BME280;18343;50.152;8.182;2023-02-08T13:32:19;99241.72;;;6.14;45.67
31771;BME280;18343;50.152;8.182;2023-02-08T13:35:14;99247.53;;;6.08;45.15
31771;BME280;18343;50.152;8.182;2023-02-08T13:38:02;99239.06;;;6.14;45.32
31771;BME280;18343;50.152;8.182;2023-02-08T13:41:06;99236.66;;;6.22;45.16
31771;BME280;18343;50.152;8.182;2023-02-08T13:43:54;99224.75;;;6.26;45.31
31771;BME280;18343;50.152;8.182;2023-02-08T13:46:45;99223.63;;;6.40;45.00
31771;BME280;18343;50.152;8.182;2023-02-08T13:49:55;99224.97;;;6.45;44.99
31771;BME280;18343;50.152;8.182;2023-02-08T13:52:51;99219.88;;;6.42;44.77
31771;BME280;18343;50.152;8.182;2023-02-08T13:56:03;99213.78;;;6.29;44.10
31771;BME280;18343;50.152;8.182;2023-02-08T13:58:59;99213.34;;;6.24;43.99
31771;BME280;18343;50.152;8.182;2023-02-08T14:02:26;99219.00;;;6.31;44.30
31771;BME280;18343;50.152;8.182;2023-02-08T14:05:46;99216.34;;;6.31;44.03
31771;BME280;18343;50.152;8.182;2023-02-08T14:08:40;99224.47;;;6.29;44.07
31771;BME280;18343;50.152;8.182;2023-02-08T14:11:39;99223.66;;;6.29;43.89
31771;BME280;18343;50.152;8.182;2023-02-08T14:14:27;99225.47;;;6.28;43.98
31771;BME280;18343;50.152;8.182;2023-02-08T14:17:22;99222.81;;;6.28;43.65
31771;BME280;18343;50.152;8.182;2023-02-08T14:20:18;99215.50;;;6.30;43.86
31771;BME280;18343;50.152;8.182;2023-02-08T14:23:06;99212.81;;;6.30;43.58
31771;BME280;18343;50.152;8.182;2023-02-08T14:26:08;99219.13;;;6.29;42.95
31771;BME280;18343;50.152;8.182;2023-02-08T14:29:03;99220.25;;;6.27;43.17
31771;BME280;18343;50.152;8.182;2023-02-08T14:31:49;99206.50;;;6.09;42.99
31771;BME280;18343;50.152;8.182;2023-02-08T14:34:38;99205.91;;;6.05;43.09
31771;BME280;18343;50.152;8.182;2023-02-08T14:37:43;99210.53;;;5.92;42.75
31771;BME280;18343;50.152;8.182;2023-02-08T14:40:45;99204.78;;;5.86;43.05
31771;BME280;18343;50.152;8.182;2023-02-08T14:43:34;99195.34;;;5.93;42.99
31771;BME280;18343;50.152;8.182;2023-02-08T14:46:42;99191.78;;;5.81;42.13
31771;BME280;18343;50.152;8.182;2023-02-08T14:49:35;99184.63;;;5.82;42.78
31771;BME280;18343;50.152;8.182;2023-02-08T14:52:23;99178.78;;;5.76;42.42
31771;BME280;18343;50.152;8.182;2023-02-08T14:55:15;99187.53;;;5.78;42.43
31771;BME280;18343;50.152;8.182;2023-02-08T14:58:01;99181.34;;;5.78;42.92
31771;BME280;18343;50.152;8.182;2023-02-08T15:00:50;99190.78;;;5.60;42.37
31771;BME280;18343;50.152;8.182;2023-02-08T15:03:39;99178.91;;;5.64;42.16
31771;BME280;18343;50.152;8.182;2023-02-08T15:07:08;99176.50;;;5.72;42.55
31771;BME280;18343;50.152;8.182;2023-02-08T15:09:56;99172.47;;;5.66;42.32
31771;BME280;18343;50.152;8.182;2023-02-08T15:12:45;99175.28;;;5.65;42.09